Time;durP1;ratioP1;P1;durP2;ratioP2;P2;SDS_P1;SDS_P2;PMS_P1;PMS_P2;Temp;Humidity;BMP_temperature;BMP_pressure;BME280_temperature;BME280_humidity;BME280_pressure;Samples;Min_cycle;Max_cycle;Signal;HPM_P1;HPM_P2
2021/08/04 00:00:19;;;;;;;;;;;;;;;21.68;57.54;101137.06;2198187;39;113747;-53
2021/08/04 00:01:51;;;;;;;;;;;;;;;21.69;57.23;101137.91;2191023;39;113890;-53
2021/08/04 00:03:23;;;;;;;;;;;;;;;21.67;57.34;101132.59;2191238;39;113841;-53
2021/08/04 00:04:55;;;;;;;;;;;;;;;21.68;57.18;101133.41;2196064;39;114026;-55
2021/08/04 00:06:27;;;;;;;;;;;;;;;21.68;57.50;101130.59;2197975;39;113595;-53
2021/08/04 00:07:59;;;;;;;;;;;;;;;21.68;57.31;101133.41;2200941;39;113958;-53
2021/08/04 00:09:31;;;;;;;;;;;;;;;21.68;57.34;101136.22;2198282;39;114797;-53
2021/08/04 00:11:03;;;;;;;;;;;;;;;21.67;57.23;101141.03;2198259;39;114804;-53
2021/08/04 00:12:35;;;;;;;;;;;;;;;21.68;57.11;101141.84;2191226;39;114856;-54
2021/08/04 00:14:07;;;;;;;;;;;;;;;21.67;57.13;101131.75;2193654;39;115152;-53
2021/08/04 00:15:40;;;;;;;;;;;;;;;21.67;57.56;101132.59;2198224;39;114945;-53
2021/08/04 00:17:11;;;;;;;;;;;;;;;21.67;57.18;101137.38;2197385;39;114550;-53
2021/08/04 00:18:43;;;;;;;;;;;;;;;21.67;57.28;101123.31;2197843;39;115222;-53
2021/08/04 00:20:15;;;;;;;;;;;;;;;21.68;57.27;101130.59;2198235;39;114765;-54
2021/08/04 00:21:47;;;;;;;;;;;;;;;21.67;57.26;101134.56;2181796;39;116971;-53
2021/08/04 00:23:19;;;;;;;;;;;;;;;21.67;57.34;101128.94;2192401;39;114882;-53
2021/08/04 00:24:50;;;;;;;;;;;;;;;21.66;57.16;101130.09;2197225;39;114771;-53
2021/08/04 00:26:22;;;;;;;;;;;;;;;21.67;57.39;101123.31;2197712;39;114287;-53
2021/08/04 00:27:55;;;;;;;;;;;;;;;21.67;57.35;101126.13;2198401;39;114804;-53
2021/08/04 00:29:26;;;;;;;;;;;;;;;21.64;57.25;101127.59;2193545;39;114902;-54
2021/08/04 00:30:58;;;;;;;;;;;;;;;21.64;57.60;101124.78;2185312;39;115801;-53
2021/08/04 00:32:30;;;;;;;;;;;;;;;21.66;57.42;101121.66;2195356;39;115592;-54
2021/08/04 00:34:02;;;;;;;;;;;;;;;21.64;57.23;101127.59;2198154;39;115821;-53
2021/08/04 00:35:37;;;;;;;;;;;;;;;21.64;57.54;101130.41;2194464;39;116284;-54
2021/08/04 00:37:08;;;;;;;;;;;;;;;21.64;57.21;101121.97;2195699;39;115720;-53
2021/08/04 00:38:40;;;;;;;;;;;;;;;21.65;57.33;101122.81;2195994;39;115595;-53
2021/08/04 00:40:12;;;;;;;;;;;;;;;21.64;57.30;101121.97;2191101;39;115929;-53
2021/08/04 00:41:44;;;;;;;;;;;;;;;21.63;57.26;101125.91;2189437;39;116178;-53
2021/08/04 00:43:16;;;;;;;;;;;;;;;21.63;57.44;101125.06;2195896;39;115546;-54
2021/08/04 00:44:48;;;;;;;;;;;;;;;21.63;57.43;101123.09;2198312;39;115575;-53
2021/08/04 00:46:20;;;;;;;;;;;;;;;21.64;57.51;101123.94;2196772;39;114553;-53
2021/08/04 00:47:52;;;;;;;;;;;;;;;21.63;57.31;101119.47;2197798;39;115506;-54
2021/08/04 00:49:24;;;;;;;;;;;;;;;21.63;57.33;101120.28;2190293;39;116141;-54
2021/08/04 00:50:55;;;;;;;;;;;;;;;21.62;57.29;101115.81;2193664;39;115577;-53
2021/08/04 00:52:27;;;;;;;;;;;;;;;21.62;57.45;101121.44;2200429;39;115553;-53
2021/08/04 00:54:01;;;;;;;;;;;;;;;21.62;57.38;101124.25;2198082;39;113955;-53
2021/08/04 00:55:33;;;;;;;;;;;;;;;21.62;57.46;101118.63;2198162;39;113671;-54
2021/08/04 00:57:05;;;;;;;;;;;;;;;21.61;57.48;101116.97;2190185;39;113708;-53
2021/08/04 00:58:38;;;;;;;;;;;;;;;21.60;57.10;101114.47;2195991;39;113987;-53
2021/08/04 01:00:11;;;;;;;;;;;;;;;21.59;57.38;101113.63;2198066;39;114070;-53
2021/08/04 01:01:48;;;;;;;;;;;;;;;21.60;57.28;101112.50;2196848;39;113718;-53
2021/08/04 01:03:21;;;;;;;;;;;;;;;21.60;57.41;101114.47;2197471;39;113825;-53
2021/08/04 01:04:53;;;;;;;;;;;;;;;21.60;57.28;101112.50;2198169;39;113699;-53
2021/08/04 01:06:45;;;;;;;;;;;;;;;21.60;57.61;101112.50;2197924;39;113748;-53
2021/08/04 01:08:22;;;;;;;;;;;;;;;21.59;57.58;101115.59;2188464;39;114273;-54
2021/08/04 01:09:58;;;;;;;;;;;;;;;21.58;57.65;101111.13;2198250;39;113931;-53
2021/08/04 01:11:33;;;;;;;;;;;;;;;21.59;57.34;101118.41;2198090;39;113924;-53
2021/08/04 01:13:05;;;;;;;;;;;;;;;21.59;57.31;101115.59;2197709;39;113995;-54
2021/08/04 01:14:39;;;;;;;;;;;;;;;21.58;57.30;101117.59;2193281;39;113843;-53
2021/08/04 01:16:13;;;;;;;;;;;;;;;21.58;57.23;101114.75;2190975;39;114997;-54
2021/08/04 01:17:47;;;;;;;;;;;;;;;21.56;57.27;101119.88;2195581;39;114113;-54
2021/08/04 01:19:29;;;;;;;;;;;;;;;21.55;57.48;101112.59;2189999;39;113921;-53
2021/08/04 01:21:01;;;;;;;;;;;;;;;21.55;57.26;101112.59;2196268;39;114745;-53
2021/08/04 01:22:39;;;;;;;;;;;;;;;21.54;57.21;101116.53;2198047;39;114792;-54
2021/08/04 01:24:17;;;;;;;;;;;;;;;21.53;57.06;101114.88;2187166;39;114731;-55
2021/08/04 01:25:53;;;;;;;;;;;;;;;21.53;57.28;101112.06;2195952;39;114738;-54
2021/08/04 01:27:25;;;;;;;;;;;;;;;21.53;57.19;101114.06;2190664;39;115433;-53
2021/08/04 01:28:57;;;;;;;;;;;;;;;21.52;57.04;101113.22;2190360;39;114001;-53
2021/08/04 01:30:29;;;;;;;;;;;;;;;21.51;57.06;101107.91;2195969;39;114890;-54
2021/08/04 01:32:01;;;;;;;;;;;;;;;21.51;57.41;101107.91;2197099;39;115809;-53
2021/08/04 01:33:34;;;;;;;;;;;;;;;21.51;57.15;101113.53;2198476;39;114836;-53
2021/08/04 01:35:07;;;;;;;;;;;;;;;21.49;57.49;101110.19;2192019;39;114805;-53
2021/08/04 01:36:39;;;;;;;;;;;;;;;21.50;57.52;101118.31;2198898;39;114789;-53
2021/08/04 01:38:13;;;;;;;;;;;;;;;21.50;57.39;101109.03;2190286;39;115661;-54
2021/08/04 01:39:45;;;;;;;;;;;;;;;21.51;57.55;101107.91;2186156;39;115629;-55
2021/08/04 01:41:17;;;;;;;;;;;;;;;21.51;57.44;101110.72;2193781;39;114566;-52
2021/08/04 01:42:50;;;;;;;;;;;;;;;21.51;57.66;101103.13;2190959;39;115663;-54
2021/08/04 01:44:22;;;;;;;;;;;;;;;21.51;57.47;101107.91;2195759;39;115608;-53
2021/08/04 01:45:54;;;;;;;;;;;;;;;21.50;57.62;101109.88;2190792;39;115871;-54
2021/08/04 01:47:29;;;;;;;;;;;;;;;21.50;57.64;101103.41;2195775;39;116001;-53
2021/08/04 01:49:02;;;;;;;;;;;;;;;21.50;57.47;101101.44;2191102;39;115494;-53
2021/08/04 01:50:35;;;;;;;;;;;;;;;21.49;57.47;101102.56;2190645;39;115565;-53
2021/08/04 01:52:07;;;;;;;;;;;;;;;21.50;57.50;101109.03;2195978;39;115975;-53
2021/08/04 01:53:40;;;;;;;;;;;;;;;21.51;57.45;101105.09;2191460;39;115540;-53
2021/08/04 01:55:12;;;;;;;;;;;;;;;21.50;57.48;101106.22;2195935;39;115618;-53
2021/08/04 01:56:45;;;;;;;;;;;;;;;21.51;57.59;101110.72;2197281;39;115469;-53
2021/08/04 01:58:17;;;;;;;;;;;;;;;21.50;57.68;101100.59;2193224;39;115079;-53
2021/08/04 01:59:49;;;;;;;;;;;;;;;21.48;57.58;101103.75;2195709;39;113912;-54
2021/08/04 02:01:20;;;;;;;;;;;;;;;21.49;57.71;101102.56;2194742;39;114688;-54
2021/08/04 02:02:52;;;;;;;;;;;;;;;21.50;57.37;101106.22;2190650;39;114384;-53
2021/08/04 02:04:24;;;;;;;;;;;;;;;21.49;57.53;101105.38;2192386;39;113652;-53
2021/08/04 02:05:59;;;;;;;;;;;;;;;21.49;57.67;101096.97;2197327;39;113806;-53
2021/08/04 02:07:40;;;;;;;;;;;;;;;21.50;57.79;101094.97;2197438;39;113684;-54
2021/08/04 02:09:20;;;;;;;;;;;;;;;21.50;57.56;101107.06;2195240;39;113602;-53
2021/08/04 02:10:53;;;;;;;;;;;;;;;21.48;57.55;101106.56;2191980;39;114595;-54
2021/08/04 02:12:25;;;;;;;;;;;;;;;21.49;57.51;101098.94;2191061;39;113695;-53
2021/08/04 02:14:04;;;;;;;;;;;;;;;21.49;57.43;101098.94;2193474;39;114021;-53
2021/08/04 02:15:39;;;;;;;;;;;;;;;21.47;57.62;101096.44;2201560;39;113844;-54
2021/08/04 02:17:21;;;;;;;;;;;;;;;21.48;57.82;101102.91;2188148;39;114244;-53
2021/08/04 02:18:56;;;;;;;;;;;;;;;21.48;57.64;101100.09;2194128;39;114048;-54
2021/08/04 02:20:34;;;;;;;;;;;;;;;21.49;57.80;101096.13;2189483;39;113667;-53
2021/08/04 02:22:14;;;;;;;;;;;;;;;21.47;57.59;101102.06;2198363;39;113598;-53
2021/08/04 02:23:47;;;;;;;;;;;;;;;21.48;57.77;101100.94;2190412;39;114784;-54
2021/08/04 02:25:19;;;;;;;;;;;;;;;21.48;57.63;101097.28;2195208;39;115220;-53
2021/08/04 02:26:54;;;;;;;;;;;;;;;21.49;57.51;101104.56;2196837;39;114768;-53
2021/08/04 02:28:27;;;;;;;;;;;;;;;21.47;57.66;101102.06;2182287;39;114868;-54
2021/08/04 02:29:59;;;;;;;;;;;;;;;21.48;57.80;101094.47;2194742;39;115293;-53
2021/08/04 02:31:32;;;;;;;;;;;;;;;21.48;57.92;101098.13;2200950;39;114770;-53
2021/08/04 02:33:04;;;;;;;;;;;;;;;21.47;57.79;101099.25;2193753;39;115812;-54
2021/08/04 02:34:36;;;;;;;;;;;;;;;21.48;57.63;101094.47;2193860;39;114873;-53
2021/08/04 02:36:08;;;;;;;;;;;;;;;21.46;57.89;101096.75;2192083;39;114823;-54
2021/08/04 02:37:39;;;;;;;;;;;;;;;21.46;57.89;101103.22;2195598;39;114375;-53
2021/08/04 02:39:11;;;;;;;;;;;;;;;21.48;57.83;101102.91;2195087;39;115019;-53
2021/08/04 02:40:43;;;;;;;;;;;;;;;21.47;57.88;101101.25;2189738;39;113955;-53
2021/08/04 02:42:15;;;;;;;;;;;;;;;21.46;57.97;101102.38;2185512;39;114049;-53
2021/08/04 02:43:47;;;;;;;;;;;;;;;21.46;57.81;101099.56;2202919;39;114858;-53
2021/08/04 02:45:19;;;;;;;;;;;;;;;21.46;57.56;101094.78;2201406;39;114928;-53
2021/08/04 02:46:51;;;;;;;;;;;;;;;21.46;57.72;101094.78;2202110;39;115470;-53
2021/08/04 02:48:23;;;;;;;;;;;;;;;21.47;57.58;101101.25;2190003;39;115473;-53
2021/08/04 02:49:55;;;;;;;;;;;;;;;21.45;57.69;101101.53;2188351;39;115614;-53
2021/08/04 02:51:30;;;;;;;;;;;;;;;21.45;57.84;101098.72;2186687;39;115915;-53
2021/08/04 02:53:02;;;;;;;;;;;;;;;21.45;57.90;101092.25;2192703;39;115876;-53
2021/08/04 02:54:34;;;;;;;;;;;;;;;21.45;57.69;101098.72;2190873;39;115539;-52
2021/08/04 02:56:06;;;;;;;;;;;;;;;21.45;57.67;101089.47;2196457;39;114590;-54
2021/08/04 02:57:38;;;;;;;;;;;;;;;21.45;57.58;101095.91;2203225;39;115523;-54
2021/08/04 02:59:10;;;;;;;;;;;;;;;21.45;57.85;101084.66;2195648;39;115470;-53
2021/08/04 03:00:42;;;;;;;;;;;;;;;21.45;57.64;101090.28;2197862;39;115447;-54
2021/08/04 03:02:14;;;;;;;;;;;;;;;21.44;57.69;101091.44;2195643;39;116016;-53
2021/08/04 03:03:46;;;;;;;;;;;;;;;21.46;57.53;101086.34;2200998;39;116093;-53
2021/08/04 03:05:18;;;;;;;;;;;;;;;21.45;57.62;101081.03;2200715;39;115542;-54
2021/08/04 03:06:49;;;;;;;;;;;;;;;21.44;57.60;101085.81;2193806;39;113744;-53
2021/08/04 03:08:21;;;;;;;;;;;;;;;21.45;57.82;101081.84;2199461;39;113720;-53
2021/08/04 03:09:53;;;;;;;;;;;;;;;21.44;57.80;101085.81;2190689;39;113719;-53
2021/08/04 03:11:25;;;;;;;;;;;;;;;21.44;57.69;101083.00;2194844;39;114046;-53
2021/08/04 03:12:56;;;;;;;;;;;;;;;21.44;57.82;101085.81;2189720;39;113857;-54
2021/08/04 03:14:28;;;;;;;;;;;;;;;21.43;57.70;101081.34;2196538;39;114099;-53
2021/08/04 03:16:01;;;;;;;;;;;;;;;21.44;58.00;101082.19;2198379;39;113707;-53
2021/08/04 03:17:33;;;;;;;;;;;;;;;21.43;57.70;101081.34;2198601;39;113896;-53
2021/08/04 03:19:04;;;;;;;;;;;;;;;21.42;57.63;101082.50;2198882;39;114012;-53
2021/08/04 03:20:36;;;;;;;;;;;;;;;21.43;57.67;101091.75;2191067;39;113783;-53
2021/08/04 03:22:08;;;;;;;;;;;;;;;21.43;57.60;101089.78;2184575;39;113875;-53
2021/08/04 03:23:40;;;;;;;;;;;;;;;21.43;57.86;101091.75;2192099;39;113983;-53
2021/08/04 03:25:13;;;;;;;;;;;;;;;21.43;57.94;101097.38;2187560;39;113828;-53
2021/08/04 03:26:45;;;;;;;;;;;;;;;21.43;57.84;101089.78;2197936;39;113626;-53
2021/08/04 03:28:17;;;;;;;;;;;;;;;21.43;57.67;101098.22;2198537;39;115630;-53
2021/08/04 03:29:48;;;;;;;;;;;;;;;21.43;57.56;101098.22;2191661;39;114760;-53
2021/08/04 03:31:20;;;;;;;;;;;;;;;21.42;57.85;101090.94;2189216;39;114789;-53
2021/08/04 03:32:52;;;;;;;;;;;;;;;21.41;57.69;101092.06;2194244;39;114839;-53
2021/08/04 03:34:24;;;;;;;;;;;;;;;21.42;57.81;101093.72;2198114;39;114745;-53
2021/08/04 03:35:56;;;;;;;;;;;;;;;21.42;57.87;101092.91;2194346;39;114796;-53
2021/08/04 03:37:27;;;;;;;;;;;;;;;21.42;57.85;101090.94;2195486;39;114792;-53
2021/08/04 03:38:59;;;;;;;;;;;;;;;21.42;57.82;101096.56;2191007;39;114063;-53
2021/08/04 03:40:31;;;;;;;;;;;;;;;21.42;57.53;101090.94;2182404;39;114890;-54
2021/08/04 03:42:03;;;;;;;;;;;;;;;21.41;57.84;101089.25;2191591;39;114196;-53
2021/08/04 03:43:35;;;;;;;;;;;;;;;21.41;57.60;101083.63;2198320;39;114537;-53
2021/08/04 03:45:08;;;;;;;;;;;;;;;21.42;57.72;101085.31;2199363;39;115018;-53
2021/08/04 03:46:39;;;;;;;;;;;;;;;21.41;57.87;101083.63;2185505;39;115070;-53
2021/08/04 03:48:11;;;;;;;;;;;;;;;21.40;57.77;101090.38;2200270;39;115037;-53
2021/08/04 03:49:43;;;;;;;;;;;;;;;21.42;57.60;101087.28;2198202;39;115456;-53
2021/08/04 03:51:15;;;;;;;;;;;;;;;21.42;57.83;101085.31;2191226;39;115746;-53
2021/08/04 03:52:47;;;;;;;;;;;;;;;21.41;57.78;101085.59;2188996;39;115856;-53
2021/08/04 03:54:19;;;;;;;;;;;;;;;21.41;57.91;101088.41;2195735;39;115563;-53
2021/08/04 03:55:50;;;;;;;;;;;;;;;21.41;57.55;101086.44;2191547;39;115553;-53
2021/08/04 03:57:23;;;;;;;;;;;;;;;21.41;57.61;101085.59;2196016;39;116068;-53
2021/08/04 03:58:54;;;;;;;;;;;;;;;21.40;57.68;101090.38;2198235;39;115183;-53
2021/08/04 04:00:26;;;;;;;;;;;;;;;21.37;57.95;101091.03;2198795;39;115557;-54
2021/08/04 04:01:58;;;;;;;;;;;;;;;21.41;57.64;101091.22;2197768;39;115463;-52
2021/08/04 04:03:30;;;;;;;;;;;;;;;21.40;57.84;101096.00;2198263;39;115636;-53
2021/08/04 04:05:02;;;;;;;;;;;;;;;21.40;57.96;101093.19;2191415;39;115479;-54
2021/08/04 04:06:34;;;;;;;;;;;;;;;21.39;57.67;101094.38;2195945;39;115561;-53
2021/08/04 04:08:06;;;;;;;;;;;;;;;21.40;57.64;101097.97;2198224;39;115093;-53
2021/08/04 04:09:37;;;;;;;;;;;;;;;21.40;57.85;101092.38;2195527;39;114645;-53
2021/08/04 04:11:09;;;;;;;;;;;;;;;21.40;57.67;101097.97;2195715;39;115545;-53
2021/08/04 04:12:41;;;;;;;;;;;;;;;21.38;57.58;101097.47;2196758;39;113824;-54
2021/08/04 04:14:13;;;;;;;;;;;;;;;21.39;57.63;101099.16;2189659;39;113567;-53
2021/08/04 04:15:45;;;;;;;;;;;;;;;21.39;57.71;101096.34;2195514;39;113819;-54
2021/08/04 04:17:17;;;;;;;;;;;;;;;21.38;57.60;101095.50;2189403;39;113906;-54
2021/08/04 04:18:49;;;;;;;;;;;;;;;21.40;57.51;101097.97;2200594;39;113777;-53
2021/08/04 04:20:21;;;;;;;;;;;;;;;21.39;57.65;101099.16;2191249;39;113725;-53
2021/08/04 04:21:53;;;;;;;;;;;;;;;21.38;57.80;101103.94;2195752;39;113877;-54
2021/08/04 04:23:24;;;;;;;;;;;;;;;21.38;57.79;101101.13;2197226;39;114060;-55
2021/08/04 04:24:56;;;;;;;;;;;;;;;21.37;57.94;101096.63;2195616;39;113626;-53
2021/08/04 04:26:28;;;;;;;;;;;;;;;21.38;57.90;101112.38;2194162;39;113837;-53
2021/08/04 04:28:00;;;;;;;;;;;;;;;21.38;57.73;101108.72;2198020;39;113840;-53
2021/08/04 04:29:32;;;;;;;;;;;;;;;21.36;57.56;101109.03;2191137;39;113901;-54
2021/08/04 04:31:03;;;;;;;;;;;;;;;21.38;57.55;101111.53;2190867;39;113943;-54
2021/08/04 04:32:36;;;;;;;;;;;;;;;21.37;57.95;101107.88;2195357;39;113805;-53
2021/08/04 04:34:08;;;;;;;;;;;;;;;21.36;57.73;101106.22;2190729;39;114765;-53
2021/08/04 04:35:39;;;;;;;;;;;;;;;21.37;57.51;101104.25;2194163;39;114977;-55
2021/08/04 04:37:11;;;;;;;;;;;;;;;21.36;57.64;101097.78;2196804;39;115439;-54
2021/08/04 04:38:43;;;;;;;;;;;;;;;21.36;57.82;101103.41;2193917;39;114923;-53
2021/08/04 04:40:15;;;;;;;;;;;;;;;21.36;57.69;101103.41;2194028;39;115395;-53
2021/08/04 04:41:47;;;;;;;;;;;;;;;21.38;57.47;101100.28;2195724;39;114905;-53
2021/08/04 04:43:18;;;;;;;;;;;;;;;21.36;57.68;101099.75;2190699;39;115212;-53
2021/08/04 04:44:50;;;;;;;;;;;;;;;21.36;57.95;101100.59;2195614;39;114778;-53
2021/08/04 04:46:22;;;;;;;;;;;;;;;21.36;58.02;101091.31;2191200;39;116830;-53
2021/08/04 04:47:54;;;;;;;;;;;;;;;21.36;57.58;101097.78;2196276;39;114715;-53
2021/08/04 04:49:25;;;;;;;;;;;;;;;21.37;57.68;101098.63;2196036;39;114847;-53
2021/08/04 04:50:57;;;;;;;;;;;;;;;21.35;57.77;101092.50;2197806;39;114801;-52
2021/08/04 04:52:29;;;;;;;;;;;;;;;21.37;57.81;101095.81;2198035;39;114775;-53
2021/08/04 04:54:01;;;;;;;;;;;;;;;21.34;57.89;101094.47;2184610;39;115142;-53
2021/08/04 04:55:33;;;;;;;;;;;;;;;21.36;57.94;101096.94;2182377;39;115424;-53
2021/08/04 04:57:07;;;;;;;;;;;;;;;21.36;57.80;101100.59;2188195;39;116202;-53
2021/08/04 04:58:38;;;;;;;;;;;;;;;21.34;57.79;101094.47;2198360;39;115589;-53
2021/08/04 05:00:11;;;;;;;;;;;;;;;21.36;57.58;101094.13;2190398;39;114629;-53
2021/08/04 05:01:42;;;;;;;;;;;;;;;21.35;57.60;101098.91;2195477;39;116206;-53
2021/08/04 05:03:14;;;;;;;;;;;;;;;21.35;57.66;101096.09;2198232;39;115543;-53
2021/08/04 05:04:46;;;;;;;;;;;;;;;21.34;57.86;101088.84;2197950;39;115270;-53
2021/08/04 05:06:18;;;;;;;;;;;;;;;21.35;57.85;101098.09;2197396;39;115533;-53
2021/08/04 05:07:50;;;;;;;;;;;;;;;21.35;57.88;101104.53;2190827;39;115499;-53
2021/08/04 05:09:22;;;;;;;;;;;;;;;21.34;57.62;101102.91;2196963;39;114651;-53
2021/08/04 05:10:54;;;;;;;;;;;;;;;21.34;57.69;101100.09;2203586;39;115659;-53
2021/08/04 05:12:25;;;;;;;;;;;;;;;21.34;57.94;101100.09;2198037;39;115537;-53
2021/08/04 05:13:57;;;;;;;;;;;;;;;21.33;57.80;101095.59;2197641;39;114673;-53
2021/08/04 05:15:29;;;;;;;;;;;;;;;21.34;57.58;101100.09;2198660;39;115677;-54
2021/08/04 05:17:01;;;;;;;;;;;;;;;21.35;57.67;101095.31;2201939;39;113996;-53
2021/08/04 05:18:33;;;;;;;;;;;;;;;21.33;57.80;101101.22;2197205;39;114418;-53
2021/08/04 05:20:05;;;;;;;;;;;;;;;21.34;57.84;101105.69;2197974;39;113806;-53
2021/08/04 05:21:37;;;;;;;;;;;;;;;21.33;57.86;101104.03;2197849;39;113588;-54
2021/08/04 05:23:09;;;;;;;;;;;;;;;21.34;57.55;101114.13;2189023;39;113846;-53
2021/08/04 05:24:41;;;;;;;;;;;;;;;21.33;57.66;101112.47;2193733;39;113825;-53
2021/08/04 05:26:13;;;;;;;;;;;;;;;21.34;57.98;101116.09;2184576;39;113997;-53
2021/08/04 05:27:44;;;;;;;;;;;;;;;21.33;57.72;101117.25;2199037;39;114242;-53
2021/08/04 05:29:16;;;;;;;;;;;;;;;21.34;57.52;101113.31;2196681;39;113761;-53
2021/08/04 05:30:48;;;;;;;;;;;;;;;21.33;57.61;101120.06;2197942;39;113837;-53
2021/08/04 05:32:20;;;;;;;;;;;;;;;21.34;57.64;101118.91;2197993;39;113647;-53
2021/08/04 05:33:51;;;;;;;;;;;;;;;21.32;57.95;101116.41;2197303;39;113712;-53
2021/08/04 05:35:23;;;;;;;;;;;;;;;21.33;57.62;101125.69;2197672;39;114019;-53
2021/08/04 05:36:55;;;;;;;;;;;;;;;21.32;57.96;101118.38;2197736;39;113756;-53
2021/08/04 05:38:27;;;;;;;;;;;;;;;21.32;57.60;101122.03;2198205;39;113536;-53
2021/08/04 05:39:59;;;;;;;;;;;;;;;21.32;57.88;101119.22;2196963;39;113889;-53
2021/08/04 05:41:31;;;;;;;;;;;;;;;21.33;57.86;101122.88;2197447;39;114358;-53
2021/08/04 05:43:02;;;;;;;;;;;;;;;21.32;57.69;101124.84;2194617;39;114905;-53
2021/08/04 05:44:34;;;;;;;;;;;;;;;21.30;57.62;101116.72;2184967;39;113899;-53
2021/08/04 05:46:06;;;;;;;;;;;;;;;21.31;57.69;101125.97;2193466;39;114765;-53
2021/08/04 05:47:38;;;;;;;;;;;;;;;21.30;57.62;101125.13;2198958;39;114958;-53
2021/08/04 05:49:10;;;;;;;;;;;;;;;21.31;57.85;101125.97;2190767;39;114853;-53
2021/08/04 05:50:42;;;;;;;;;;;;;;;21.30;57.86;101125.13;2193180;39;115441;-54
2021/08/04 05:52:14;;;;;;;;;;;;;;;21.31;57.72;101125.97;2197152;39;115119;-53
2021/08/04 05:53:46;;;;;;;;;;;;;;;21.30;57.63;101125.13;2191066;39;114836;-53
2021/08/04 05:55:17;;;;;;;;;;;;;;;21.30;57.99;101125.13;2189832;39;114892;-53
2021/08/04 05:56:49;;;;;;;;;;;;;;;21.30;58.00;101129.97;2197253;39;114811;-54
2021/08/04 05:58:21;;;;;;;;;;;;;;;21.30;57.69;101130.75;2196980;39;115142;-54
2021/08/04 05:59:53;;;;;;;;;;;;;;;21.31;57.63;101125.97;2204835;39;114848;-53
2021/08/04 06:01:25;;;;;;;;;;;;;;;21.30;57.56;101129.97;2186591;39;115735;-55
2021/08/04 06:02:57;;;;;;;;;;;;;;;21.29;57.56;101129.13;2193509;39;115604;-53
2021/08/04 06:04:29;;;;;;;;;;;;;;;21.30;57.73;101132.78;2199114;39;114816;-54
2021/08/04 06:06:01;;;;;;;;;;;;;;;21.28;57.80;101135.88;2202661;39;115248;-53
2021/08/04 06:07:32;;;;;;;;;;;;;;;21.31;57.88;101137.22;2190973;39;115622;-53
2021/08/04 06:09:04;;;;;;;;;;;;;;;21.28;57.63;101135.03;2195306;39;115634;-53
2021/08/04 06:10:36;;;;;;;;;;;;;;;21.30;57.87;101133.56;2197473;39;114549;-54
2021/08/04 06:12:09;;;;;;;;;;;;;;;21.30;57.70;101132.78;2197662;39;115597;-53
2021/08/04 06:13:41;;;;;;;;;;;;;;;21.29;57.86;101131.09;2198097;39;115556;-53
2021/08/04 06:15:13;;;;;;;;;;;;;;;21.28;57.66;101133.06;2202973;39;115638;-53
2021/08/04 06:16:45;;;;;;;;;;;;;;;21.30;57.73;101129.97;2204766;39;115418;-53
2021/08/04 06:18:17;;;;;;;;;;;;;;;21.30;57.69;101138.38;2195513;39;115499;-53
2021/08/04 06:19:48;;;;;;;;;;;;;;;21.32;57.82;101133.28;2197939;39;115566;-53
2021/08/04 06:21:20;;;;;;;;;;;;;;;21.33;57.58;101128.50;2200368;39;115962;-54
2021/08/04 06:22:52;;;;;;;;;;;;;;;21.36;57.74;101128.69;2199517;39;113683;-53
2021/08/04 06:24:24;;;;;;;;;;;;;;;21.36;57.81;101128.69;2198652;39;113971;-53
2021/08/04 06:25:56;;;;;;;;;;;;;;;21.37;57.97;101124.75;2204438;39;114023;-52
2021/08/04 06:27:45;;;;;;;;;;;;;;;21.41;58.29;101128.59;2202233;39;114022;-53
2021/08/04 06:29:17;;;;;;;;;;;;;;;21.43;58.39;101120.72;2198395;39;113734;-53
2021/08/04 06:30:49;;;;;;;;;;;;;;;21.48;58.53;101131.03;2196535;39;113538;-53
2021/08/04 06:32:21;;;;;;;;;;;;;;;21.51;58.88;101124.78;2198005;39;114266;-53
2021/08/04 06:33:53;;;;;;;;;;;;;;;21.56;58.66;101121.88;2191121;39;113746;-53
2021/08/04 06:35:25;;;;;;;;;;;;;;;21.58;58.69;101123.19;2197033;39;113820;-53
2021/08/04 06:37:00;;;;;;;;;;;;;;;21.60;59.06;101129.38;2201225;39;113650;-53
2021/08/04 06:38:32;;;;;;;;;;;;;;;21.64;59.16;101130.41;2200646;39;113842;-53
2021/08/04 06:40:05;;;;;;;;;;;;;;;21.67;59.16;101131.75;2196003;39;113983;-54
2021/08/04 06:41:36;;;;;;;;;;;;;;;21.72;59.39;101134.47;2202021;39;113716;-54
2021/08/04 06:43:08;;;;;;;;;;;;;;;21.74;59.38;101138.66;2205107;39;113820;-53
2021/08/04 06:44:40;;;;;;;;;;;;;;;21.78;59.37;101138.84;2197218;39;114082;-53
2021/08/04 06:46:13;;;;;;;;;;;;;;;21.81;59.62;101138.22;2201616;39;114986;-53
2021/08/04 06:47:46;;;;;;;;;;;;;;;21.85;59.56;101133.63;2188903;39;117579;-54
2021/08/04 06:49:17;;;;;;;;;;;;;;;21.89;59.62;101136.66;2198631;39;114768;-53
2021/08/04 06:50:49;;;;;;;;;;;;;;;21.93;59.54;101138.56;2201587;39;114804;-53
2021/08/04 06:52:21;;;;;;;;;;;;;;;21.98;59.67;101143.25;2200424;39;114928;-53
2021/08/04 06:53:54;;;;;;;;;;;;;;;22.00;59.60;101138.97;2196908;39;114756;-53
2021/08/04 06:55:26;;;;;;;;;;;;;;;22.05;59.64;101138.88;2195697;39;115014;-53
2021/08/04 06:56:57;;;;;;;;;;;;;;;22.08;59.48;101141.03;2201407;39;114806;-53
2021/08/04 06:58:29;;;;;;;;;;;;;;;22.13;59.39;101137.28;2201843;39;114833;-53
2021/08/04 07:00:01;;;;;;;;;;;;;;;22.16;59.47;101140.31;2201828;39;114684;-53
2021/08/04 07:01:33;;;;;;;;;;;;;;;22.21;59.44;101141.34;2201579;39;114741;-53
2021/08/04 07:03:05;;;;;;;;;;;;;;;22.24;59.09;101133.09;2199497;39;113971;-53
2021/08/04 07:04:37;;;;;;;;;;;;;;;22.31;59.19;101136.31;2203840;39;115098;-54
2021/08/04 07:06:09;;;;;;;;;;;;;;;22.35;59.00;101137.34;2192794;39;116336;-56
2021/08/04 07:07:42;;;;;;;;;;;;;;;22.39;58.82;101144.03;2186447;39;115543;-52
2021/08/04 07:09:14;;;;;;;;;;;;;;;22.42;59.08;101134.09;2184184;39;115740;-53
2021/08/04 07:10:46;;;;;;;;;;;;;;;22.44;59.15;101132.63;2196392;39;115729;-54
2021/08/04 07:12:18;;;;;;;;;;;;;;;22.49;59.20;101132.50;2201334;39;115663;-54
2021/08/04 07:13:50;;;;;;;;;;;;;;;22.52;59.00;101139.50;2198696;39;114571;-53
2021/08/04 07:15:22;;;;;;;;;;;;;;;22.56;59.22;101130.13;2191109;39;115521;-54
2021/08/04 07:16:54;;;;;;;;;;;;;;;22.60;59.13;101135.94;2198212;39;115530;-53
2021/08/04 07:18:26;;;;;;;;;;;;;;;22.64;59.24;101131.31;2197554;39;115352;-53
2021/08/04 07:19:57;;;;;;;;;;;;;;;22.68;59.14;101128.69;2200854;39;115896;-53
2021/08/04 07:21:29;;;;;;;;;;;;;;;22.72;58.94;101136.22;2202375;39;116074;-54
2021/08/04 07:23:01;;;;;;;;;;;;;;;22.75;58.80;101132.78;2200307;39;115529;-54
2021/08/04 07:24:35;;;;;;;;;;;;;;;22.78;58.65;101129.31;2200530;39;115534;-54
2021/08/04 07:26:08;;;;;;;;;;;;;;;22.81;58.63;101137.13;2200801;39;115658;-53
2021/08/04 07:27:40;;;;;;;;;;;;;;;22.85;58.61;101137.34;2205949;39;115217;-53
2021/08/04 07:29:12;;;;;;;;;;;;;;;22.87;58.57;101137.84;2201407;39;113710;-54
2021/08/04 07:30:46;;;;;;;;;;;;;;;22.91;58.54;101136.03;2196082;39;113905;-52
2021/08/04 07:32:18;;;;;;;;;;;;;;;22.93;58.31;101136.56;2200798;39;113890;-54
2021/08/04 07:33:50;;;;;;;;;;;;;;;22.96;58.26;101141.56;2202554;39;113961;-53
2021/08/04 07:35:23;;;;;;;;;;;;;;;22.98;58.13;101136.44;2188501;39;113700;-54
2021/08/04 07:36:55;;;;;;;;;;;;;;;23.00;58.11;101137.78;2197592;39;114070;-53
2021/08/04 07:38:27;;;;;;;;;;;;;;;23.03;57.97;101139.94;2199651;39;113902;-54
2021/08/04 07:40:00;;;;;;;;;;;;;;;23.05;57.99;101139.63;2199246;39;113783;-53
2021/08/04 07:41:32;;;;;;;;;;;;;;;23.07;57.84;101137.34;2202224;39;114095;-54
2021/08/04 07:43:04;;;;;;;;;;;;;;;23.09;57.81;101139.81;2203692;39;113871;-54
2021/08/04 07:44:36;;;;;;;;;;;;;;;23.11;57.83;101141.19;2201524;39;113823;-53
2021/08/04 07:46:08;;;;;;;;;;;;;;;23.13;57.64;101144.50;2201373;39;113977;-53
2021/08/04 07:47:40;;;;;;;;;;;;;;;23.14;57.61;101137.72;2193749;39;114716;-53
2021/08/04 07:49:12;;;;;;;;;;;;;;;23.17;57.54;101139.06;2203161;39;113861;-53